createdAt,value
2019-01-30T00:01:43.223Z,15.03
2019-01-30T00:04:12.267Z,7.07
2019-01-30T00:06:41.253Z,9.53
2019-01-30T00:09:10.374Z,7.07
2019-01-30T00:11:39.460Z,13.50
2019-01-30T00:14:08.543Z,13.40
2019-01-30T00:16:37.622Z,9.40
2019-01-30T00:19:06.611Z,16.87
2019-01-30T00:21:37.010Z,15.17
2019-01-30T00:24:06.091Z,10.60
2019-01-30T00:26:35.175Z,11.47
2019-01-30T00:29:04.766Z,8.70
2019-01-30T00:31:33.761Z,6.60
2019-01-30T00:34:02.737Z,8.53
2019-01-30T00:36:31.697Z,8.03
2019-01-30T00:39:00.715Z,11.40
2019-01-30T00:41:29.698Z,12.63
2019-01-30T00:43:58.703Z,6.47
2019-01-30T00:46:27.672Z,6.83
2019-01-30T00:48:56.659Z,9.23
2019-01-30T00:51:25.632Z,10.00
2019-01-30T00:53:54.639Z,8.20
2019-01-30T00:56:23.617Z,7.90
2019-01-30T00:58:52.631Z,8.83
2019-01-30T01:01:21.630Z,5.47
2019-01-30T01:03:50.632Z,7.03
2019-01-30T01:06:19.691Z,8.37
2019-01-30T01:08:48.774Z,7.13
2019-01-30T01:11:17.756Z,6.17
2019-01-30T01:13:46.819Z,5.80
2019-01-30T01:16:15.844Z,5.90
2019-01-30T01:18:44.961Z,5.50
2019-01-30T01:21:14.034Z,7.77
2019-01-30T01:23:43.041Z,5.97
2019-01-30T01:26:12.074Z,5.60
2019-01-30T01:28:41.124Z,6.67
2019-01-30T01:31:10.092Z,5.43
2019-01-30T01:33:39.074Z,4.17
2019-01-30T01:36:08.128Z,5.37
2019-01-30T01:38:37.131Z,4.10
2019-01-30T01:41:06.113Z,6.50
2019-01-30T01:43:37.086Z,4.53
2019-01-30T01:46:08.794Z,6.70
2019-01-30T01:48:37.787Z,5.50
2019-01-30T01:51:06.763Z,9.03
2019-01-30T01:53:35.770Z,6.43
2019-01-30T01:56:04.806Z,5.93
2019-01-30T01:58:33.797Z,6.33
2019-01-30T02:01:02.779Z,6.03
2019-01-30T02:03:31.768Z,6.23
2019-01-30T02:06:00.746Z,5.00
2019-01-30T02:08:29.794Z,5.47
2019-01-30T02:10:58.739Z,4.97
2019-01-30T02:13:27.779Z,6.97
2019-01-30T02:15:56.834Z,5.67
2019-01-30T02:18:25.889Z,6.80
2019-01-30T02:20:54.857Z,6.17
2019-01-30T02:23:23.830Z,5.00
2019-01-30T02:25:52.783Z,4.27
2019-01-30T02:28:21.816Z,5.60
2019-01-30T02:30:50.879Z,5.50
2019-01-30T02:33:19.871Z,4.40
2019-01-30T02:35:48.877Z,4.43
2019-01-30T02:38:17.837Z,4.43
2019-01-30T02:40:46.850Z,4.17
2019-01-30T02:43:15.830Z,3.50
2019-01-30T02:45:44.790Z,4.77
2019-01-30T02:48:13.789Z,4.37
2019-01-30T02:50:42.779Z,4.13
2019-01-30T02:53:11.759Z,4.23
2019-01-30T02:55:40.748Z,4.27
2019-01-30T02:58:09.736Z,5.87
2019-01-30T03:00:38.720Z,5.83
2019-01-30T03:03:07.687Z,5.13
2019-01-30T03:05:36.692Z,3.93
2019-01-30T03:08:05.650Z,3.93
2019-01-30T03:10:34.628Z,5.73
2019-01-30T03:13:04.436Z,5.10
2019-01-30T03:15:33.452Z,5.53
2019-01-30T03:18:02.418Z,4.77
2019-01-30T03:20:31.474Z,4.10
2019-01-30T03:23:00.446Z,4.37
2019-01-30T03:25:29.429Z,3.87
2019-01-30T03:27:58.406Z,4.03
2019-01-30T03:30:28.189Z,4.13
2019-01-30T03:32:57.199Z,3.90
2019-01-30T03:35:26.170Z,4.10
2019-01-30T03:37:55.151Z,4.53
2019-01-30T03:40:24.232Z,3.73
2019-01-30T03:42:53.319Z,3.80
2019-01-30T03:45:22.943Z,4.60
2019-01-30T03:47:52.043Z,3.80
2019-01-30T03:50:21.165Z,3.70
2019-01-30T03:52:50.248Z,4.03
2019-01-30T03:55:19.337Z,3.87
2019-01-30T03:57:48.327Z,4.70
2019-01-30T04:00:18.450Z,4.10
2019-01-30T04:02:47.483Z,3.90
2019-01-30T04:05:16.589Z,4.43
2019-01-30T04:07:45.576Z,3.90
2019-01-30T04:10:15.941Z,4.77
2019-01-30T04:12:44.979Z,4.73
2019-01-30T04:15:14.135Z,4.70
2019-01-30T04:17:43.212Z,5.60
2019-01-30T04:20:12.514Z,4.53
2019-01-30T04:22:41.487Z,3.70
2019-01-30T04:25:10.558Z,4.77
2019-01-30T04:27:39.576Z,5.10
2019-01-30T04:30:10.572Z,5.10
2019-01-30T04:32:39.540Z,4.90
2019-01-30T04:35:08.623Z,5.70
2019-01-30T04:37:39.534Z,4.93
2019-01-30T04:40:09.953Z,4.93
2019-01-30T04:42:38.982Z,4.80
2019-01-30T04:45:08.952Z,4.30
2019-01-30T04:47:37.977Z,5.00
2019-01-30T04:50:07.090Z,5.00
2019-01-30T04:52:36.273Z,5.30
2019-01-30T04:55:05.454Z,4.23
2019-01-30T04:57:34.461Z,4.47
2019-01-30T05:00:03.682Z,4.03
2019-01-30T05:02:32.696Z,4.00
2019-01-30T05:05:01.691Z,4.00
2019-01-30T05:07:30.684Z,4.00
2019-01-30T05:09:59.685Z,4.40
2019-01-30T05:12:28.740Z,5.57
2019-01-30T05:14:57.747Z,4.93
2019-01-30T05:17:26.713Z,5.00
2019-01-30T05:19:55.707Z,5.07
2019-01-30T05:22:24.690Z,4.47
2019-01-30T05:24:53.679Z,4.50
2019-01-30T05:27:22.638Z,4.97
2019-01-30T05:29:51.905Z,5.40
2019-01-30T05:32:20.937Z,5.23
2019-01-30T05:34:49.955Z,4.40
2019-01-30T05:37:18.969Z,5.33
2019-01-30T05:40:03.399Z,4.70
2019-01-30T05:42:32.425Z,4.97
2019-01-30T05:45:01.594Z,4.57
2019-01-30T05:47:30.582Z,4.70
2019-01-30T05:49:59.578Z,4.90
2019-01-30T05:52:28.600Z,5.13
2019-01-30T05:54:57.577Z,4.70
2019-01-30T05:57:26.626Z,4.87
2019-01-30T05:59:55.663Z,5.10
2019-01-30T06:02:24.757Z,4.93
2019-01-30T06:04:53.821Z,5.50
2019-01-30T06:07:22.804Z,4.47
2019-01-30T06:09:51.826Z,5.00
2019-01-30T06:12:20.932Z,5.07
2019-01-30T06:14:50.011Z,5.77
2019-01-30T06:17:19.122Z,5.00
2019-01-30T06:19:48.181Z,5.10
2019-01-30T06:22:17.302Z,5.83
2019-01-30T06:24:46.332Z,5.33
2019-01-30T06:27:18.330Z,5.77
2019-01-30T06:29:47.449Z,5.43
2019-01-30T06:32:21.954Z,5.53
2019-01-30T06:34:47.322Z,5.30
2019-01-30T06:37:18.226Z,5.27
2019-01-30T06:39:47.278Z,5.80
2019-01-30T06:42:16.347Z,6.03
2019-01-30T06:44:45.428Z,5.60
2019-01-30T06:47:14.553Z,5.67
2019-01-30T06:49:43.590Z,5.50
2019-01-30T06:52:12.740Z,5.50
2019-01-30T06:54:41.824Z,6.30
2019-01-30T06:57:10.936Z,5.90
2019-01-30T06:59:40.134Z,5.73
2019-01-30T07:02:09.335Z,5.47
2019-01-30T07:04:38.467Z,5.63
2019-01-30T07:07:07.581Z,5.93
2019-01-30T07:09:36.654Z,8.07
2019-01-30T07:12:05.815Z,6.40
2019-01-30T07:14:35.007Z,5.50
2019-01-30T07:17:04.050Z,6.50
2019-01-30T07:19:33.063Z,5.77
2019-01-30T07:22:02.187Z,6.13
2019-01-30T07:24:31.302Z,5.77
2019-01-30T07:27:00.469Z,6.50
2019-01-30T07:29:29.493Z,5.63
2019-01-30T07:31:58.643Z,5.37
2019-01-30T07:34:27.776Z,5.07
2019-01-30T07:36:57.016Z,5.20
2019-01-30T07:39:26.463Z,5.63
2019-01-30T07:41:55.541Z,5.20
2019-01-30T07:44:24.708Z,5.13
2019-01-30T07:46:53.804Z,5.07
2019-01-30T07:49:22.985Z,4.70
2019-01-30T07:51:52.156Z,4.63
2019-01-30T07:54:21.317Z,4.70
2019-01-30T07:56:50.417Z,4.97
2019-01-30T07:59:19.466Z,5.10
2019-01-30T08:01:50.923Z,5.00
2019-01-30T08:04:19.410Z,5.60
2019-01-30T08:06:48.604Z,5.93
2019-01-30T08:09:17.713Z,5.60
2019-01-30T08:11:46.868Z,5.73
2019-01-30T08:14:15.897Z,5.20
2019-01-30T08:16:45.057Z,5.40
2019-01-30T08:19:14.113Z,5.37
2019-01-30T08:21:43.178Z,6.23
2019-01-30T08:24:12.530Z,4.90
2019-01-30T08:26:42.014Z,5.57
2019-01-30T08:29:11.538Z,6.23
2019-01-30T08:31:41.066Z,5.90
2019-01-30T08:34:10.120Z,5.83
2019-01-30T08:36:39.198Z,5.90
2019-01-30T08:39:08.310Z,6.77
2019-01-30T08:41:37.482Z,5.67
2019-01-30T08:44:06.519Z,6.23
2019-01-30T08:46:35.682Z,6.50
2019-01-30T08:49:04.893Z,5.77
2019-01-30T08:51:34.035Z,5.60
2019-01-30T08:54:03.071Z,5.40
2019-01-30T08:56:38.726Z,5.47
2019-01-30T08:59:02.918Z,5.93
2019-01-30T09:01:31.992Z,5.60
2019-01-30T09:04:01.046Z,5.27
2019-01-30T09:06:30.143Z,4.87
2019-01-30T09:08:59.171Z,5.00
2019-01-30T09:11:28.311Z,4.63
2019-01-30T09:13:57.446Z,4.60
2019-01-30T09:16:26.496Z,5.03
2019-01-30T09:18:55.657Z,4.60
2019-01-30T09:21:24.784Z,5.43
2019-01-30T09:23:53.947Z,5.62
2019-01-30T09:26:23.002Z,5.28
2019-01-30T09:28:52.159Z,8.13
2019-01-30T09:31:21.380Z,7.53
2019-01-30T09:33:50.435Z,6.63
2019-01-30T09:36:19.487Z,19.57
2019-01-30T09:38:48.659Z,10.03
2019-01-30T09:41:17.835Z,10.27
2019-01-30T09:43:47.015Z,10.80
2019-01-30T09:46:16.171Z,5.50
2019-01-30T09:48:45.241Z,4.43
2019-01-30T09:51:14.288Z,4.90
2019-01-30T09:53:43.271Z,5.80
2019-01-30T09:56:12.251Z,4.95
2019-01-30T09:58:41.452Z,6.00
2019-01-30T10:01:10.407Z,6.07
2019-01-30T10:03:39.392Z,7.33
2019-01-30T10:06:08.411Z,5.53
2019-01-30T10:08:37.512Z,5.43
2019-01-30T10:11:06.476Z,4.33
2019-01-30T10:13:37.392Z,5.30
2019-01-30T10:16:06.127Z,5.87
2019-01-30T10:18:35.148Z,4.33
2019-01-30T10:21:04.114Z,5.40
2019-01-30T10:23:33.111Z,4.87
2019-01-30T10:26:02.247Z,4.13
2019-01-30T10:28:31.279Z,5.00
2019-01-30T10:31:00.282Z,4.27
2019-01-30T10:33:29.285Z,4.10
2019-01-30T10:35:58.257Z,3.53
2019-01-30T10:38:30.371Z,4.10
2019-01-30T10:40:59.424Z,3.93
2019-01-30T10:43:28.546Z,3.90
2019-01-30T10:45:57.528Z,3.30
2019-01-30T10:48:26.566Z,2.83
2019-01-30T10:50:55.612Z,3.30
2019-01-30T10:53:24.604Z,2.90
2019-01-30T10:55:53.586Z,2.77
2019-01-30T10:58:25.507Z,1.90
2019-01-30T11:00:54.478Z,2.40
2019-01-30T11:03:23.472Z,1.93
2019-01-30T11:05:52.546Z,2.53
2019-01-30T11:08:21.527Z,2.07
2019-01-30T11:10:51.078Z,1.50
2019-01-30T11:13:20.181Z,2.20
2019-01-30T11:15:49.175Z,1.90
2019-01-30T11:18:18.169Z,1.70
2019-01-30T11:20:47.138Z,2.20
2019-01-30T11:23:16.233Z,1.87
2019-01-30T11:25:46.142Z,2.93
2019-01-30T11:28:15.191Z,2.30
2019-01-30T11:30:44.194Z,2.13
2019-01-30T11:33:13.187Z,2.10
2019-01-30T11:35:42.179Z,1.50
2019-01-30T11:38:11.176Z,1.83
2019-01-30T11:40:40.161Z,1.50
2019-01-30T11:43:09.156Z,1.73
2019-01-30T11:45:39.064Z,1.97
2019-01-30T11:48:08.319Z,1.70
2019-01-30T11:50:39.607Z,1.77
2019-01-30T11:53:08.619Z,1.47
2019-01-30T11:55:39.010Z,1.83
2019-01-30T11:58:08.368Z,1.60
2019-01-30T12:00:58.252Z,2.00
2019-01-30T12:03:27.354Z,2.23
2019-01-30T12:05:56.459Z,2.00
2019-01-30T12:08:25.439Z,1.87
2019-01-30T12:10:54.463Z,2.07
2019-01-30T12:13:23.495Z,1.73
2019-01-30T12:15:52.516Z,2.40
2019-01-30T12:18:21.558Z,1.70
2019-01-30T12:20:52.005Z,1.70
2019-01-30T12:23:21.198Z,1.93
2019-01-30T12:25:50.243Z,1.73
2019-01-30T12:28:19.235Z,1.97
2019-01-30T12:30:48.230Z,1.50
2019-01-30T12:33:17.314Z,1.60
2019-01-30T12:35:46.268Z,1.40
2019-01-30T12:38:15.261Z,1.50
2019-01-30T12:40:44.228Z,1.90
2019-01-30T12:43:13.284Z,1.80
2019-01-30T12:45:42.257Z,2.10
2019-01-30T12:48:11.350Z,1.60
2019-01-30T12:50:40.335Z,1.60
2019-01-30T12:53:09.415Z,2.00
2019-01-30T12:55:38.423Z,3.20
2019-01-30T12:58:07.407Z,6.50
2019-01-30T13:00:37.635Z,8.63
2019-01-30T13:03:06.725Z,9.87
2019-01-30T13:05:35.778Z,11.00
2019-01-30T13:08:04.990Z,13.13
2019-01-30T13:10:35.456Z,12.53
2019-01-30T13:13:04.614Z,7.67
2019-01-30T13:15:33.579Z,32.87
2019-01-30T13:18:02.635Z,7.50
2019-01-30T13:20:31.675Z,7.67
2019-01-30T13:23:00.742Z,4.23
2019-01-30T13:25:30.891Z,4.47
2019-01-30T13:27:59.928Z,7.47
2019-01-30T13:30:30.202Z,2.90
2019-01-30T13:32:59.389Z,1.50
2019-01-30T13:35:28.506Z,2.13
2019-01-30T13:37:57.495Z,1.90
2019-01-30T13:40:30.070Z,1.63
2019-01-30T13:42:59.070Z,1.73
2019-01-30T13:45:28.417Z,1.50
2019-01-30T13:47:57.421Z,1.80
2019-01-30T13:50:26.606Z,2.10
2019-01-30T13:52:55.706Z,2.17
2019-01-30T13:55:24.864Z,1.73
2019-01-30T13:57:53.919Z,2.10
2019-01-30T14:00:24.537Z,1.50
2019-01-30T14:02:53.644Z,2.00
2019-01-30T14:05:22.610Z,2.10
2019-01-30T14:07:51.819Z,8.63
2019-01-30T14:10:20.961Z,11.13
2019-01-30T14:12:50.075Z,11.60
2019-01-30T14:15:19.922Z,10.37
2019-01-30T14:17:48.993Z,12.73
2019-01-30T14:20:18.253Z,7.23
2019-01-30T14:22:47.253Z,5.00
2019-01-30T14:25:16.268Z,4.17
2019-01-30T14:27:45.243Z,3.13
2019-01-30T14:30:27.679Z,2.50
2019-01-30T14:32:56.752Z,2.33
2019-01-30T14:35:26.634Z,2.17
2019-01-30T14:37:55.656Z,2.53
2019-01-30T14:40:24.734Z,2.40
2019-01-30T14:42:53.706Z,2.53
2019-01-30T14:45:22.859Z,2.90
2019-01-30T14:47:51.825Z,2.90
2019-01-30T14:50:21.632Z,2.57
2019-01-30T14:52:50.705Z,2.60
2019-01-30T14:55:19.733Z,2.10
2019-01-30T14:57:49.254Z,2.10
2019-01-30T15:00:22.536Z,1.87
2019-01-30T15:02:51.672Z,2.27
2019-01-30T15:05:22.694Z,2.00
2019-01-30T15:07:51.923Z,2.50
2019-01-30T15:10:21.067Z,1.93
2019-01-30T15:12:50.385Z,3.02
2019-01-30T15:15:20.496Z,2.50
2019-01-30T15:17:49.545Z,7.23
2019-01-30T15:20:19.629Z,6.17
2019-01-30T15:22:48.685Z,6.80
2019-01-30T15:25:18.216Z,8.00
2019-01-30T15:27:47.185Z,5.57
2019-01-30T15:30:20.104Z,6.33
2019-01-30T15:32:49.107Z,8.23
2019-01-30T15:35:18.180Z,6.10
2019-01-30T15:37:47.251Z,5.60
2019-01-30T15:40:17.459Z,4.97
2019-01-30T15:42:49.399Z,4.17
2019-01-30T15:45:17.880Z,4.17
2019-01-30T15:48:05.941Z,3.97
2019-01-30T15:50:35.322Z,2.77
2019-01-30T15:53:06.128Z,2.63
2019-01-30T15:55:35.229Z,3.20
2019-01-30T15:58:05.866Z,2.60
2019-01-30T16:00:36.248Z,2.80
2019-01-30T16:03:05.370Z,2.77
2019-01-30T16:05:44.643Z,2.97
2019-01-30T16:08:05.154Z,3.17
2019-01-30T16:10:34.451Z,2.63
2019-01-30T16:13:03.555Z,3.00
2019-01-30T16:15:34.299Z,3.00
2019-01-30T16:18:03.339Z,3.40
2019-01-30T16:20:32.356Z,3.10
2019-01-30T16:23:01.428Z,2.50
2019-01-30T16:25:30.453Z,3.23
2019-01-30T16:27:59.428Z,2.60
2019-01-30T16:30:28.532Z,2.47
2019-01-30T16:32:57.517Z,3.10
2019-01-30T16:35:27.541Z,3.97
2019-01-30T16:37:56.526Z,2.90
2019-01-30T16:40:25.549Z,2.57
2019-01-30T16:42:54.611Z,3.03
2019-01-30T16:45:24.563Z,2.67
2019-01-30T16:47:53.792Z,3.10
2019-01-30T16:50:22.894Z,3.63
2019-01-30T16:52:51.865Z,2.80
2019-01-30T16:55:21.135Z,2.50
2019-01-30T16:57:50.311Z,2.80
2019-01-30T17:00:27.837Z,2.87
2019-01-30T17:02:56.930Z,5.10
2019-01-30T17:05:26.119Z,4.53
2019-01-30T17:07:55.111Z,4.77
2019-01-30T17:10:24.230Z,5.13
2019-01-30T17:12:53.286Z,5.07
2019-01-30T17:15:23.696Z,5.10
2019-01-30T17:17:52.783Z,6.97
2019-01-30T17:20:22.820Z,5.30
2019-01-30T17:22:51.831Z,4.47
2019-01-30T17:25:21.053Z,5.10
2019-01-30T17:27:50.137Z,4.03
2019-01-30T17:30:26.842Z,4.10
2019-01-30T17:32:55.868Z,4.63
2019-01-30T17:35:24.900Z,3.83
2019-01-30T17:37:53.894Z,4.47
2019-01-30T17:40:23.099Z,4.13
2019-01-30T17:42:52.174Z,4.60
2019-01-30T17:45:21.197Z,4.70
2019-01-30T17:47:50.936Z,5.53
2019-01-30T17:50:21.032Z,6.80
2019-01-30T17:52:50.050Z,5.57
2019-01-30T17:55:19.126Z,5.70
2019-01-30T17:57:49.415Z,4.20
2019-01-30T18:00:24.703Z,4.10
2019-01-30T18:02:53.744Z,3.50
2019-01-30T18:05:22.775Z,5.07
2019-01-30T18:07:51.854Z,3.43
2019-01-30T18:10:20.864Z,3.63
2019-01-30T18:12:49.926Z,3.47
2019-01-30T18:15:18.915Z,4.10
2019-01-30T18:17:48.490Z,3.23
2019-01-30T18:20:17.512Z,3.77
2019-01-30T18:22:46.595Z,3.70
2019-01-30T18:25:15.658Z,3.40
2019-01-30T18:27:44.631Z,4.57
2019-01-30T18:30:14.951Z,2.90
2019-01-30T18:32:44.141Z,3.40
2019-01-30T18:35:13.180Z,3.13
2019-01-30T18:37:42.247Z,3.17
2019-01-30T18:40:15.282Z,2.70
2019-01-30T18:42:44.281Z,3.00
2019-01-30T18:45:17.668Z,3.03
2019-01-30T18:47:46.700Z,3.40
2019-01-30T18:50:19.343Z,3.57
2019-01-30T18:52:48.325Z,3.30
2019-01-30T18:55:17.495Z,3.97
2019-01-30T18:57:46.802Z,3.63
2019-01-30T19:00:19.951Z,3.33
2019-01-30T19:02:48.950Z,3.60
2019-01-30T19:05:18.058Z,2.53
2019-01-30T19:07:47.162Z,2.93
2019-01-30T19:10:16.278Z,3.43
2019-01-30T19:12:45.291Z,3.50
2019-01-30T19:15:15.511Z,4.20
2019-01-30T19:17:44.558Z,3.00
2019-01-30T19:20:16.049Z,3.40
2019-01-30T19:22:45.144Z,2.90
2019-01-30T19:25:14.206Z,4.40
2019-01-30T19:27:43.203Z,6.30
2019-01-30T19:30:22.123Z,5.20
2019-01-30T19:32:51.332Z,4.87
2019-01-30T19:35:20.452Z,5.37
2019-01-30T19:37:49.964Z,4.13
2019-01-30T19:40:21.217Z,4.77
2019-01-30T19:42:50.331Z,4.83
2019-01-30T19:45:20.061Z,4.10
2019-01-30T19:47:49.290Z,3.70
2019-01-30T19:50:19.637Z,4.07
2019-01-30T19:52:48.755Z,3.30
2019-01-30T19:55:17.776Z,3.30
2019-01-30T19:57:49.732Z,4.33
2019-01-30T20:00:24.097Z,4.03
2019-01-30T20:02:53.171Z,3.83
2019-01-30T20:05:23.399Z,4.77
2019-01-30T20:07:52.698Z,3.70
2019-01-30T20:10:22.852Z,4.13
2019-01-30T20:12:51.952Z,4.47
2019-01-30T20:15:21.260Z,4.93
2019-01-30T20:17:50.293Z,4.03
2019-01-30T20:20:21.210Z,4.30
2019-01-30T20:22:50.398Z,3.93
2019-01-30T20:25:25.518Z,4.67
2019-01-30T20:27:54.657Z,4.77
2019-01-30T20:30:24.125Z,3.90
2019-01-30T20:32:53.160Z,3.07
2019-01-30T20:35:25.562Z,7.17
2019-01-30T20:37:56.643Z,6.73
2019-01-30T20:40:26.828Z,3.47
2019-01-30T20:42:56.165Z,5.03
2019-01-30T20:45:33.420Z,3.60
2019-01-30T20:47:56.052Z,4.33
2019-01-30T20:50:25.867Z,5.33
2019-01-30T20:52:54.971Z,4.03
2019-01-30T20:55:23.966Z,3.47
2019-01-30T20:57:52.951Z,4.07
2019-01-30T21:00:34.919Z,6.23
2019-01-30T21:03:02.721Z,6.33
2019-01-30T21:05:31.815Z,4.80
2019-01-30T21:08:00.810Z,4.07
2019-01-30T21:10:31.134Z,5.37
2019-01-30T21:13:00.164Z,3.80
2019-01-30T21:15:29.204Z,5.73
2019-01-30T21:17:58.234Z,4.83
2019-01-30T21:20:27.211Z,3.63
2019-01-30T21:22:56.255Z,5.73
2019-01-30T21:25:25.425Z,3.77
2019-01-30T21:27:54.449Z,4.17
2019-01-30T21:30:27.793Z,5.70
2019-01-30T21:32:56.778Z,3.87
2019-01-30T21:35:25.767Z,3.40
2019-01-30T21:37:54.810Z,3.60
2019-01-30T21:40:23.795Z,3.73
2019-01-30T21:42:52.787Z,3.90
2019-01-30T21:45:22.216Z,6.00
2019-01-30T21:47:51.226Z,3.70
2019-01-30T21:50:20.368Z,3.80
2019-01-30T21:52:50.955Z,3.90
2019-01-30T21:55:20.972Z,5.07
2019-01-30T21:57:50.082Z,4.63
2019-01-30T22:00:20.068Z,3.50
2019-01-30T22:02:50.993Z,4.70
2019-01-30T22:05:20.014Z,3.70
2019-01-30T22:08:00.051Z,3.40
2019-01-30T22:10:29.483Z,3.83
2019-01-30T22:12:58.520Z,3.90
2019-01-30T22:15:27.653Z,3.13
2019-01-30T22:17:56.652Z,3.40
2019-01-30T22:20:26.174Z,3.83
2019-01-30T22:22:55.291Z,3.47
2019-01-30T22:25:24.519Z,3.63
2019-01-30T22:27:53.527Z,3.37
2019-01-30T22:30:26.880Z,2.97
2019-01-30T22:32:56.066Z,3.90
2019-01-30T22:35:25.305Z,3.47
2019-01-30T22:37:54.558Z,3.30
2019-01-30T22:40:23.617Z,4.20
2019-01-30T22:42:52.711Z,4.73
2019-01-30T22:45:22.362Z,5.37
2019-01-30T22:47:51.658Z,3.43
2019-01-30T22:50:20.853Z,7.67
2019-01-30T22:52:49.850Z,6.43
2019-01-30T22:55:19.726Z,10.17
2019-01-30T22:57:51.014Z,7.60
2019-01-30T23:00:30.624Z,9.30
2019-01-30T23:02:59.754Z,5.80
2019-01-30T23:05:54.061Z,6.00
2019-01-30T23:08:30.734Z,3.53
2019-01-30T23:11:37.023Z,3.90
2019-01-30T23:14:10.503Z,4.33
2019-01-30T23:16:59.720Z,4.80
2019-01-30T23:19:33.406Z,8.23
2019-01-30T23:22:30.671Z,3.80
2019-01-30T23:25:27.979Z,6.10
2019-01-30T23:28:03.277Z,4.20
2019-01-30T23:30:49.875Z,5.90
2019-01-30T23:33:38.100Z,5.13
2019-01-30T23:36:20.169Z,8.20
2019-01-30T23:39:08.307Z,4.10
2019-01-30T23:41:50.472Z,5.27
2019-01-30T23:44:25.604Z,5.77
2019-01-30T23:47:12.290Z,6.27
2019-01-30T23:50:00.952Z,6.73
2019-01-30T23:52:47.920Z,4.00
2019-01-30T23:55:36.152Z,5.57
2019-01-30T23:58:15.766Z,5.40
